sensor_id;sensor_type;location;lat;lon;timestamp;P1;durP1;ratioP1;P2;durP2;ratioP2
72882;SDS011;61017;37.812;-122.286;2023-01-25T00:00:07;3.05;;;1.50;;
72882;SDS011;61017;37.812;-122.286;2023-01-25T00:01:39;4.75;;;1.60;;
72882;SDS011;61017;37.812;-122.286;2023-01-25T00:03:11;1.70;;;1.25;;
72882;SDS011;61017;37.812;-122.286;2023-01-25T00:04:42;3.28;;;1.60;;
72882;SDS011;61017;37.812;-122.286;2023-01-25T00:06:14;2.65;;;1.40;;
72882;SDS011;61017;37.812;-122.286;2023-01-25T00:07:46;3.42;;;1.38;;
72882;SDS011;61017;37.812;-122.286;2023-01-25T00:09:18;1.88;;;1.23;;
72882;SDS011;61017;37.812;-122.286;2023-01-25T00:10:50;5.30;;;1.70;;
72882;SDS011;61017;37.812;-122.286;2023-01-25T00:12:22;3.63;;;1.58;;
72882;SDS011;61017;37.812;-122.286;2023-01-25T00:13:53;2.47;;;1.45;;
72882;SDS011;61017;37.812;-122.286;2023-01-25T00:15:25;1.55;;;1.17;;
72882;SDS011;61017;37.812;-122.286;2023-01-25T00:16:57;2.92;;;1.55;;
72882;SDS011;61017;37.812;-122.286;2023-01-25T00:18:29;2.78;;;1.50;;
72882;SDS011;61017;37.812;-122.286;2023-01-25T00:20:01;2.13;;;1.40;;
72882;SDS011;61017;37.812;-122.286;2023-01-25T00:21:33;2.13;;;1.40;;
72882;SDS011;61017;37.812;-122.286;2023-01-25T00:23:05;2.03;;;1.23;;
72882;SDS011;61017;37.812;-122.286;2023-01-25T00:24:37;1.70;;;1.17;;
72882;SDS011;61017;37.812;-122.286;2023-01-25T00:26:08;2.42;;;1.40;;
72882;SDS011;61017;37.812;-122.286;2023-01-25T00:27:40;1.90;;;1.30;;
72882;SDS011;61017;37.812;-122.286;2023-01-25T00:29:11;2.60;;;1.50;;
72882;SDS011;61017;37.812;-122.286;2023-01-25T00:30:44;3.33;;;1.40;;
72882;SDS011;61017;37.812;-122.286;2023-01-25T00:33:50;1.90;;;1.30;;
72882;SDS011;61017;37.812;-122.286;2023-01-25T00:35:36;2.03;;;1.42;;
72882;SDS011;61017;37.812;-122.286;2023-01-25T00:38:58;3.40;;;1.42;;
72882;SDS011;61017;37.812;-122.286;2023-01-25T00:40:30;2.55;;;1.33;;
72882;SDS011;61017;37.812;-122.286;2023-01-25T00:42:01;3.85;;;1.70;;
72882;SDS011;61017;37.812;-122.286;2023-01-25T00:43:33;3.88;;;1.55;;
72882;SDS011;61017;37.812;-122.286;2023-01-25T00:45:05;2.38;;;1.33;;
72882;SDS011;61017;37.812;-122.286;2023-01-25T00:46:37;1.90;;;1.38;;
72882;SDS011;61017;37.812;-122.286;2023-01-25T00:48:08;2.40;;;1.30;;
72882;SDS011;61017;37.812;-122.286;2023-01-25T00:49:41;3.97;;;1.55;;
72882;SDS011;61017;37.812;-122.286;2023-01-25T00:51:14;1.92;;;1.38;;
72882;SDS011;61017;37.812;-122.286;2023-01-25T00:52:45;1.73;;;1.20;;
72882;SDS011;61017;37.812;-122.286;2023-01-25T00:54:17;2.47;;;1.35;;
72882;SDS011;61017;37.812;-122.286;2023-01-25T00:55:52;2.03;;;1.33;;
72882;SDS011;61017;37.812;-122.286;2023-01-25T00:57:24;2.42;;;1.40;;
72882;SDS011;61017;37.812;-122.286;2023-01-25T00:58:55;1.83;;;1.20;;
72882;SDS011;61017;37.812;-122.286;2023-01-25T01:00:27;4.00;;;1.42;;
72882;SDS011;61017;37.812;-122.286;2023-01-25T01:01:59;2.90;;;1.30;;
72882;SDS011;61017;37.812;-122.286;2023-01-25T01:03:31;2.58;;;1.48;;
72882;SDS011;61017;37.812;-122.286;2023-01-25T01:05:02;4.03;;;1.52;;
72882;SDS011;61017;37.812;-122.286;2023-01-25T01:06:35;2.60;;;1.55;;
72882;SDS011;61017;37.812;-122.286;2023-01-25T01:08:07;2.22;;;1.40;;
72882;SDS011;61017;37.812;-122.286;2023-01-25T01:09:39;3.08;;;1.50;;
72882;SDS011;61017;37.812;-122.286;2023-01-25T01:11:11;4.10;;;1.75;;
72882;SDS011;61017;37.812;-122.286;2023-01-25T01:12:43;3.03;;;1.50;;
72882;SDS011;61017;37.812;-122.286;2023-01-25T01:14:14;2.45;;;1.30;;
72882;SDS011;61017;37.812;-122.286;2023-01-25T01:15:46;2.22;;;1.40;;
72882;SDS011;61017;37.812;-122.286;2023-01-25T01:17:17;4.03;;;1.60;;
72882;SDS011;61017;37.812;-122.286;2023-01-25T01:18:49;2.85;;;1.30;;
72882;SDS011;61017;37.812;-122.286;2023-01-25T01:20:21;3.17;;;1.50;;
72882;SDS011;61017;37.812;-122.286;2023-01-25T01:21:52;2.20;;;1.38;;
72882;SDS011;61017;37.812;-122.286;2023-01-25T01:23:24;2.67;;;1.38;;
72882;SDS011;61017;37.812;-122.286;2023-01-25T01:26:28;3.22;;;1.40;;
72882;SDS011;61017;37.812;-122.286;2023-01-25T01:27:59;2.25;;;1.50;;
72882;SDS011;61017;37.812;-122.286;2023-01-25T01:29:31;3.85;;;1.45;;
72882;SDS011;61017;37.812;-122.286;2023-01-25T01:31:03;3.15;;;1.38;;
72882;SDS011;61017;37.812;-122.286;2023-01-25T01:32:53;3.55;;;1.60;;
72882;SDS011;61017;37.812;-122.286;2023-01-25T01:34:25;3.25;;;1.40;;
72882;SDS011;61017;37.812;-122.286;2023-01-25T01:35:57;4.75;;;1.58;;
72882;SDS011;61017;37.812;-122.286;2023-01-25T01:37:28;3.45;;;1.60;;
72882;SDS011;61017;37.812;-122.286;2023-01-25T01:39:00;1.85;;;1.40;;
72882;SDS011;61017;37.812;-122.286;2023-01-25T01:40:31;2.92;;;1.60;;
72882;SDS011;61017;37.812;-122.286;2023-01-25T01:42:03;5.22;;;1.40;;
72882;SDS011;61017;37.812;-122.286;2023-01-25T01:43:35;2.70;;;1.50;;
72882;SDS011;61017;37.812;-122.286;2023-01-25T01:47:36;4.30;;;1.50;;
72882;SDS011;61017;37.812;-122.286;2023-01-25T01:49:11;3.53;;;1.60;;
72882;SDS011;61017;37.812;-122.286;2023-01-25T01:50:52;1.92;;;1.20;;
72882;SDS011;61017;37.812;-122.286;2023-01-25T01:52:30;2.83;;;1.48;;
72882;SDS011;61017;37.812;-122.286;2023-01-25T01:55:46;2.50;;;1.52;;
72882;SDS011;61017;37.812;-122.286;2023-01-25T01:57:22;3.80;;;1.60;;
72882;SDS011;61017;37.812;-122.286;2023-01-25T02:00:34;2.58;;;1.40;;
72882;SDS011;61017;37.812;-122.286;2023-01-25T02:02:08;2.55;;;1.60;;
72882;SDS011;61017;37.812;-122.286;2023-01-25T02:03:40;2.92;;;1.70;;
72882;SDS011;61017;37.812;-122.286;2023-01-25T02:05:19;2.70;;;1.50;;
72882;SDS011;61017;37.812;-122.286;2023-01-25T02:07:07;2.95;;;1.50;;
72882;SDS011;61017;37.812;-122.286;2023-01-25T02:08:46;2.90;;;1.45;;
72882;SDS011;61017;37.812;-122.286;2023-01-25T02:10:18;2.85;;;1.60;;
72882;SDS011;61017;37.812;-122.286;2023-01-25T02:13:23;3.88;;;1.80;;
72882;SDS011;61017;37.812;-122.286;2023-01-25T02:14:54;2.90;;;1.67;;
72882;SDS011;61017;37.812;-122.286;2023-01-25T02:16:26;3.40;;;1.60;;
72882;SDS011;61017;37.812;-122.286;2023-01-25T02:17:58;3.55;;;1.70;;
72882;SDS011;61017;37.812;-122.286;2023-01-25T02:19:44;2.80;;;1.58;;
72882;SDS011;61017;37.812;-122.286;2023-01-25T02:21:29;3.05;;;1.70;;
72882;SDS011;61017;37.812;-122.286;2023-01-25T02:23:15;2.53;;;1.40;;
72882;SDS011;61017;37.812;-122.286;2023-01-25T02:25:12;3.33;;;1.55;;
72882;SDS011;61017;37.812;-122.286;2023-01-25T02:26:46;3.55;;;1.65;;
72882;SDS011;61017;37.812;-122.286;2023-01-25T02:28:28;2.92;;;1.70;;
72882;SDS011;61017;37.812;-122.286;2023-01-25T02:30:07;2.63;;;1.60;;
72882;SDS011;61017;37.812;-122.286;2023-01-25T02:31:42;3.70;;;1.67;;
72882;SDS011;61017;37.812;-122.286;2023-01-25T02:33:14;4.47;;;1.67;;
72882;SDS011;61017;37.812;-122.286;2023-01-25T02:34:46;2.58;;;1.70;;
72882;SDS011;61017;37.812;-122.286;2023-01-25T02:36:23;2.85;;;1.85;;
72882;SDS011;61017;37.812;-122.286;2023-01-25T02:38:04;3.15;;;1.65;;
72882;SDS011;61017;37.812;-122.286;2023-01-25T02:39:36;2.53;;;1.75;;
72882;SDS011;61017;37.812;-122.286;2023-01-25T02:41:12;3.63;;;1.92;;
72882;SDS011;61017;37.812;-122.286;2023-01-25T02:42:50;3.13;;;1.90;;
72882;SDS011;61017;37.812;-122.286;2023-01-25T02:44:30;2.58;;;1.60;;
72882;SDS011;61017;37.812;-122.286;2023-01-25T02:46:06;2.60;;;1.80;;
72882;SDS011;61017;37.812;-122.286;2023-01-25T02:47:50;3.05;;;1.90;;
72882;SDS011;61017;37.812;-122.286;2023-01-25T02:49:22;2.78;;;1.95;;
72882;SDS011;61017;37.812;-122.286;2023-01-25T02:50:53;4.57;;;2.05;;
72882;SDS011;61017;37.812;-122.286;2023-01-25T02:52:25;3.35;;;2.25;;
72882;SDS011;61017;37.812;-122.286;2023-01-25T02:53:57;5.22;;;1.90;;
72882;SDS011;61017;37.812;-122.286;2023-01-25T02:55:29;2.72;;;1.85;;
72882;SDS011;61017;37.812;-122.286;2023-01-25T02:57:00;3.35;;;1.95;;
72882;SDS011;61017;37.812;-122.286;2023-01-25T02:58:32;3.25;;;2.10;;
72882;SDS011;61017;37.812;-122.286;2023-01-25T03:00:04;4.25;;;2.10;;
72882;SDS011;61017;37.812;-122.286;2023-01-25T03:01:36;3.30;;;2.10;;
72882;SDS011;61017;37.812;-122.286;2023-01-25T03:03:09;3.97;;;2.25;;
72882;SDS011;61017;37.812;-122.286;2023-01-25T03:04:41;3.05;;;2.10;;
72882;SDS011;61017;37.812;-122.286;2023-01-25T03:06:12;3.80;;;2.10;;
72882;SDS011;61017;37.812;-122.286;2023-01-25T03:07:44;3.83;;;2.40;;
72882;SDS011;61017;37.812;-122.286;2023-01-25T03:09:15;4.03;;;2.20;;
72882;SDS011;61017;37.812;-122.286;2023-01-25T03:10:47;4.80;;;2.30;;
72882;SDS011;61017;37.812;-122.286;2023-01-25T03:12:18;3.72;;;2.30;;
72882;SDS011;61017;37.812;-122.286;2023-01-25T03:13:50;4.07;;;2.50;;
72882;SDS011;61017;37.812;-122.286;2023-01-25T03:15:21;4.45;;;2.20;;
72882;SDS011;61017;37.812;-122.286;2023-01-25T03:16:53;4.53;;;2.40;;
72882;SDS011;61017;37.812;-122.286;2023-01-25T03:18:25;4.38;;;2.70;;
72882;SDS011;61017;37.812;-122.286;2023-01-25T03:19:57;4.10;;;2.33;;
72882;SDS011;61017;37.812;-122.286;2023-01-25T03:21:28;4.25;;;2.35;;
72882;SDS011;61017;37.812;-122.286;2023-01-25T03:23:00;4.25;;;2.38;;
72882;SDS011;61017;37.812;-122.286;2023-01-25T03:24:31;4.93;;;2.70;;
72882;SDS011;61017;37.812;-122.286;2023-01-25T03:26:13;3.22;;;2.33;;
72882;SDS011;61017;37.812;-122.286;2023-01-25T03:27:49;3.97;;;2.35;;
72882;SDS011;61017;37.812;-122.286;2023-01-25T03:29:20;4.97;;;2.40;;
72882;SDS011;61017;37.812;-122.286;2023-01-25T03:30:52;4.80;;;2.60;;
72882;SDS011;61017;37.812;-122.286;2023-01-25T03:32:24;4.50;;;2.63;;
72882;SDS011;61017;37.812;-122.286;2023-01-25T03:33:55;3.33;;;2.40;;
72882;SDS011;61017;37.812;-122.286;2023-01-25T03:35:27;4.75;;;2.60;;
72882;SDS011;61017;37.812;-122.286;2023-01-25T03:36:58;4.95;;;2.50;;
72882;SDS011;61017;37.812;-122.286;2023-01-25T03:38:30;3.67;;;2.50;;
72882;SDS011;61017;37.812;-122.286;2023-01-25T03:40:02;4.03;;;2.40;;
72882;SDS011;61017;37.812;-122.286;2023-01-25T03:41:34;3.42;;;2.30;;
72882;SDS011;61017;37.812;-122.286;2023-01-25T03:43:06;6.32;;;2.35;;
72882;SDS011;61017;37.812;-122.286;2023-01-25T03:44:37;3.38;;;2.40;;
72882;SDS011;61017;37.812;-122.286;2023-01-25T03:46:09;4.22;;;2.50;;
72882;SDS011;61017;37.812;-122.286;2023-01-25T03:47:40;4.38;;;2.40;;
72882;SDS011;61017;37.812;-122.286;2023-01-25T03:49:12;4.90;;;2.22;;
72882;SDS011;61017;37.812;-122.286;2023-01-25T03:50:47;4.43;;;2.50;;
72882;SDS011;61017;37.812;-122.286;2023-01-25T03:52:19;3.90;;;2.25;;
72882;SDS011;61017;37.812;-122.286;2023-01-25T03:53:51;3.65;;;2.60;;
72882;SDS011;61017;37.812;-122.286;2023-01-25T03:55:22;3.83;;;2.20;;
72882;SDS011;61017;37.812;-122.286;2023-01-25T03:56:54;4.43;;;2.35;;
72882;SDS011;61017;37.812;-122.286;2023-01-25T03:58:26;3.85;;;2.55;;
72882;SDS011;61017;37.812;-122.286;2023-01-25T03:59:58;4.10;;;2.50;;
72882;SDS011;61017;37.812;-122.286;2023-01-25T04:01:30;4.65;;;2.50;;
72882;SDS011;61017;37.812;-122.286;2023-01-25T04:03:01;4.47;;;2.80;;
72882;SDS011;61017;37.812;-122.286;2023-01-25T04:04:33;4.13;;;2.50;;
72882;SDS011;61017;37.812;-122.286;2023-01-25T04:06:05;3.78;;;2.55;;
72882;SDS011;61017;37.812;-122.286;2023-01-25T04:07:37;6.63;;;2.33;;
72882;SDS011;61017;37.812;-122.286;2023-01-25T04:09:08;4.20;;;2.60;;
72882;SDS011;61017;37.812;-122.286;2023-01-25T04:10:40;8.43;;;2.67;;
72882;SDS011;61017;37.812;-122.286;2023-01-25T04:12:12;4.00;;;2.60;;
72882;SDS011;61017;37.812;-122.286;2023-01-25T04:13:43;4.25;;;2.60;;
72882;SDS011;61017;37.812;-122.286;2023-01-25T04:15:15;3.65;;;2.60;;
72882;SDS011;61017;37.812;-122.286;2023-01-25T04:16:46;4.03;;;2.47;;
72882;SDS011;61017;37.812;-122.286;2023-01-25T04:18:18;4.05;;;2.60;;
72882;SDS011;61017;37.812;-122.286;2023-01-25T04:19:50;3.75;;;2.50;;
72882;SDS011;61017;37.812;-122.286;2023-01-25T04:21:21;4.25;;;2.70;;
72882;SDS011;61017;37.812;-122.286;2023-01-25T04:22:53;5.03;;;2.55;;
72882;SDS011;61017;37.812;-122.286;2023-01-25T04:24:25;4.35;;;2.65;;
72882;SDS011;61017;37.812;-122.286;2023-01-25T04:26:00;4.45;;;2.70;;
72882;SDS011;61017;37.812;-122.286;2023-01-25T04:27:33;4.28;;;2.50;;
72882;SDS011;61017;37.812;-122.286;2023-01-25T04:29:05;3.60;;;2.50;;
72882;SDS011;61017;37.812;-122.286;2023-01-25T04:30:37;4.80;;;2.70;;
72882;SDS011;61017;37.812;-122.286;2023-01-25T04:32:08;3.63;;;2.53;;
72882;SDS011;61017;37.812;-122.286;2023-01-25T04:33:40;3.30;;;2.22;;
72882;SDS011;61017;37.812;-122.286;2023-01-25T04:35:11;5.05;;;2.70;;
72882;SDS011;61017;37.812;-122.286;2023-01-25T04:36:43;4.60;;;2.70;;
72882;SDS011;61017;37.812;-122.286;2023-01-25T04:38:14;4.78;;;2.78;;
72882;SDS011;61017;37.812;-122.286;2023-01-25T04:39:46;5.73;;;2.90;;
72882;SDS011;61017;37.812;-122.286;2023-01-25T04:41:18;4.30;;;2.90;;
72882;SDS011;61017;37.812;-122.286;2023-01-25T04:42:49;4.50;;;2.97;;
72882;SDS011;61017;37.812;-122.286;2023-01-25T04:44:21;4.75;;;2.80;;
72882;SDS011;61017;37.812;-122.286;2023-01-25T04:45:52;4.88;;;2.80;;
72882;SDS011;61017;37.812;-122.286;2023-01-25T04:47:24;4.80;;;2.75;;
72882;SDS011;61017;37.812;-122.286;2023-01-25T04:48:56;4.82;;;3.15;;
72882;SDS011;61017;37.812;-122.286;2023-01-25T04:50:27;5.32;;;2.70;;
72882;SDS011;61017;37.812;-122.286;2023-01-25T04:52:00;5.47;;;3.00;;
72882;SDS011;61017;37.812;-122.286;2023-01-25T04:53:31;6.90;;;2.90;;
72882;SDS011;61017;37.812;-122.286;2023-01-25T04:55:03;4.18;;;2.80;;
72882;SDS011;61017;37.812;-122.286;2023-01-25T04:56:35;6.13;;;3.08;;
72882;SDS011;61017;37.812;-122.286;2023-01-25T04:58:06;5.03;;;2.78;;
72882;SDS011;61017;37.812;-122.286;2023-01-25T04:59:38;4.15;;;2.85;;
72882;SDS011;61017;37.812;-122.286;2023-01-25T05:01:10;4.20;;;2.45;;
72882;SDS011;61017;37.812;-122.286;2023-01-25T05:02:41;5.93;;;3.10;;
72882;SDS011;61017;37.812;-122.286;2023-01-25T05:04:13;4.90;;;2.60;;
72882;SDS011;61017;37.812;-122.286;2023-01-25T05:05:45;5.20;;;3.08;;
72882;SDS011;61017;37.812;-122.286;2023-01-25T05:07:17;4.40;;;2.92;;
72882;SDS011;61017;37.812;-122.286;2023-01-25T05:08:49;4.32;;;2.92;;
72882;SDS011;61017;37.812;-122.286;2023-01-25T05:10:20;5.93;;;3.10;;
72882;SDS011;61017;37.812;-122.286;2023-01-25T05:11:52;5.65;;;3.03;;
72882;SDS011;61017;37.812;-122.286;2023-01-25T05:13:23;4.97;;;2.92;;
72882;SDS011;61017;37.812;-122.286;2023-01-25T05:14:55;4.97;;;3.40;;
72882;SDS011;61017;37.812;-122.286;2023-01-25T05:16:26;4.93;;;3.13;;
72882;SDS011;61017;37.812;-122.286;2023-01-25T05:17:58;6.75;;;3.20;;
72882;SDS011;61017;37.812;-122.286;2023-01-25T05:19:29;5.53;;;2.90;;
72882;SDS011;61017;37.812;-122.286;2023-01-25T05:21:01;4.72;;;3.22;;
72882;SDS011;61017;37.812;-122.286;2023-01-25T05:22:33;5.25;;;3.22;;
72882;SDS011;61017;37.812;-122.286;2023-01-25T05:24:04;7.20;;;3.20;;
72882;SDS011;61017;37.812;-122.286;2023-01-25T05:25:36;5.65;;;3.10;;
72882;SDS011;61017;37.812;-122.286;2023-01-25T05:27:08;4.78;;;3.33;;
72882;SDS011;61017;37.812;-122.286;2023-01-25T05:28:40;4.57;;;3.20;;
72882;SDS011;61017;37.812;-122.286;2023-01-25T05:30:11;4.43;;;3.17;;
72882;SDS011;61017;37.812;-122.286;2023-01-25T05:31:43;5.20;;;3.00;;
72882;SDS011;61017;37.812;-122.286;2023-01-25T05:33:15;4.82;;;3.15;;
72882;SDS011;61017;37.812;-122.286;2023-01-25T05:34:46;4.60;;;2.75;;
72882;SDS011;61017;37.812;-122.286;2023-01-25T05:36:18;6.00;;;3.42;;
72882;SDS011;61017;37.812;-122.286;2023-01-25T05:37:50;4.45;;;3.10;;
72882;SDS011;61017;37.812;-122.286;2023-01-25T05:39:25;5.10;;;3.28;;
72882;SDS011;61017;37.812;-122.286;2023-01-25T05:40:57;5.10;;;3.47;;
72882;SDS011;61017;37.812;-122.286;2023-01-25T05:42:29;4.70;;;3.35;;
72882;SDS011;61017;37.812;-122.286;2023-01-25T05:44:00;5.82;;;3.40;;
72882;SDS011;61017;37.812;-122.286;2023-01-25T05:45:32;4.80;;;3.30;;
72882;SDS011;61017;37.812;-122.286;2023-01-25T05:47:04;5.47;;;3.30;;
72882;SDS011;61017;37.812;-122.286;2023-01-25T05:48:35;4.68;;;3.40;;
72882;SDS011;61017;37.812;-122.286;2023-01-25T05:50:07;5.03;;;3.40;;
72882;SDS011;61017;37.812;-122.286;2023-01-25T05:51:39;4.88;;;3.13;;
72882;SDS011;61017;37.812;-122.286;2023-01-25T05:53:11;4.95;;;3.33;;
72882;SDS011;61017;37.812;-122.286;2023-01-25T05:54:44;5.70;;;3.47;;
72882;SDS011;61017;37.812;-122.286;2023-01-25T05:56:15;4.85;;;3.00;;
72882;SDS011;61017;37.812;-122.286;2023-01-25T05:57:47;5.40;;;3.30;;
72882;SDS011;61017;37.812;-122.286;2023-01-25T05:59:18;4.70;;;3.30;;
72882;SDS011;61017;37.812;-122.286;2023-01-25T06:00:50;5.93;;;3.50;;
72882;SDS011;61017;37.812;-122.286;2023-01-25T06:02:21;5.47;;;3.28;;
72882;SDS011;61017;37.812;-122.286;2023-01-25T06:03:53;6.25;;;3.03;;
72882;SDS011;61017;37.812;-122.286;2023-01-25T06:05:25;5.50;;;3.35;;
72882;SDS011;61017;37.812;-122.286;2023-01-25T06:06:56;5.20;;;3.15;;
72882;SDS011;61017;37.812;-122.286;2023-01-25T06:08:31;7.03;;;3.45;;
72882;SDS011;61017;37.812;-122.286;2023-01-25T06:10:03;6.03;;;3.40;;
72882;SDS011;61017;37.812;-122.286;2023-01-25T06:11:35;5.25;;;3.38;;
72882;SDS011;61017;37.812;-122.286;2023-01-25T06:13:06;6.28;;;3.70;;
72882;SDS011;61017;37.812;-122.286;2023-01-25T06:14:38;4.47;;;3.40;;
72882;SDS011;61017;37.812;-122.286;2023-01-25T06:16:09;4.82;;;3.10;;
72882;SDS011;61017;37.812;-122.286;2023-01-25T06:17:41;5.13;;;3.28;;
72882;SDS011;61017;37.812;-122.286;2023-01-25T06:19:13;5.25;;;3.28;;
72882;SDS011;61017;37.812;-122.286;2023-01-25T06:20:44;6.15;;;3.70;;
72882;SDS011;61017;37.812;-122.286;2023-01-25T06:22:16;5.75;;;3.50;;
72882;SDS011;61017;37.812;-122.286;2023-01-25T06:23:48;5.75;;;3.45;;
72882;SDS011;61017;37.812;-122.286;2023-01-25T06:25:19;5.68;;;3.22;;
72882;SDS011;61017;37.812;-122.286;2023-01-25T06:26:51;5.85;;;3.45;;
72882;SDS011;61017;37.812;-122.286;2023-01-25T06:28:22;4.38;;;3.17;;
72882;SDS011;61017;37.812;-122.286;2023-01-25T06:29:54;5.22;;;3.38;;
72882;SDS011;61017;37.812;-122.286;2023-01-25T06:31:25;5.63;;;3.75;;
72882;SDS011;61017;37.812;-122.286;2023-01-25T06:32:57;5.22;;;3.47;;
72882;SDS011;61017;37.812;-122.286;2023-01-25T06:34:29;6.32;;;3.50;;
72882;SDS011;61017;37.812;-122.286;2023-01-25T06:36:04;6.53;;;4.05;;
72882;SDS011;61017;37.812;-122.286;2023-01-25T06:37:39;5.70;;;3.60;;
72882;SDS011;61017;37.812;-122.286;2023-01-25T06:39:11;5.22;;;3.35;;
72882;SDS011;61017;37.812;-122.286;2023-01-25T06:40:43;6.82;;;3.83;;
72882;SDS011;61017;37.812;-122.286;2023-01-25T06:42:14;3.78;;;3.20;;
72882;SDS011;61017;37.812;-122.286;2023-01-25T06:43:47;7.28;;;3.58;;
72882;SDS011;61017;37.812;-122.286;2023-01-25T06:45:20;6.10;;;3.60;;
72882;SDS011;61017;37.812;-122.286;2023-01-25T06:46:52;6.57;;;3.40;;
72882;SDS011;61017;37.812;-122.286;2023-01-25T06:48:24;5.93;;;3.50;;
72882;SDS011;61017;37.812;-122.286;2023-01-25T06:49:55;5.15;;;3.40;;
72882;SDS011;61017;37.812;-122.286;2023-01-25T06:51:27;5.32;;;3.40;;
72882;SDS011;61017;37.812;-122.286;2023-01-25T06:52:59;7.55;;;3.65;;
72882;SDS011;61017;37.812;-122.286;2023-01-25T06:54:31;8.48;;;3.83;;
72882;SDS011;61017;37.812;-122.286;2023-01-25T06:56:04;6.13;;;3.63;;
72882;SDS011;61017;37.812;-122.286;2023-01-25T06:57:37;5.53;;;3.22;;
72882;SDS011;61017;37.812;-122.286;2023-01-25T06:59:09;5.82;;;3.70;;
72882;SDS011;61017;37.812;-122.286;2023-01-25T07:00:40;5.20;;;3.25;;
72882;SDS011;61017;37.812;-122.286;2023-01-25T07:02:15;5.43;;;3.17;;
72882;SDS011;61017;37.812;-122.286;2023-01-25T07:03:50;6.85;;;3.38;;
72882;SDS011;61017;37.812;-122.286;2023-01-25T07:05:23;5.60;;;3.40;;
72882;SDS011;61017;37.812;-122.286;2023-01-25T07:06:55;6.28;;;3.45;;
72882;SDS011;61017;37.812;-122.286;2023-01-25T07:08:27;5.43;;;3.40;;
72882;SDS011;61017;37.812;-122.286;2023-01-25T07:09:59;4.95;;;3.47;;
72882;SDS011;61017;37.812;-122.286;2023-01-25T07:11:30;4.45;;;3.17;;
72882;SDS011;61017;37.812;-122.286;2023-01-25T07:13:02;5.03;;;3.30;;
72882;SDS011;61017;37.812;-122.286;2023-01-25T07:14:33;5.15;;;3.55;;
72882;SDS011;61017;37.812;-122.286;2023-01-25T07:16:06;4.85;;;3.25;;
72882;SDS011;61017;37.812;-122.286;2023-01-25T07:17:38;5.32;;;3.63;;
72882;SDS011;61017;37.812;-122.286;2023-01-25T07:19:10;5.47;;;3.20;;
72882;SDS011;61017;37.812;-122.286;2023-01-25T07:20:42;4.90;;;3.20;;
72882;SDS011;61017;37.812;-122.286;2023-01-25T07:22:13;5.07;;;3.42;;
72882;SDS011;61017;37.812;-122.286;2023-01-25T07:23:45;5.05;;;3.40;;
72882;SDS011;61017;37.812;-122.286;2023-01-25T07:25:17;4.78;;;3.28;;
72882;SDS011;61017;37.812;-122.286;2023-01-25T07:26:48;5.63;;;3.40;;
72882;SDS011;61017;37.812;-122.286;2023-01-25T07:28:20;5.55;;;3.30;;
72882;SDS011;61017;37.812;-122.286;2023-01-25T07:29:51;3.92;;;3.05;;
72882;SDS011;61017;37.812;-122.286;2023-01-25T07:31:23;4.63;;;3.30;;
72882;SDS011;61017;37.812;-122.286;2023-01-25T07:32:55;6.07;;;3.30;;
72882;SDS011;61017;37.812;-122.286;2023-01-25T07:34:29;4.65;;;3.10;;
72882;SDS011;61017;37.812;-122.286;2023-01-25T07:36:01;5.30;;;3.22;;
72882;SDS011;61017;37.812;-122.286;2023-01-25T07:37:34;5.07;;;3.00;;
72882;SDS011;61017;37.812;-122.286;2023-01-25T07:39:06;4.28;;;3.33;;
72882;SDS011;61017;37.812;-122.286;2023-01-25T07:40:37;5.32;;;3.15;;
72882;SDS011;61017;37.812;-122.286;2023-01-25T07:42:09;6.05;;;3.15;;
72882;SDS011;61017;37.812;-122.286;2023-01-25T07:43:40;5.10;;;3.33;;
72882;SDS011;61017;37.812;-122.286;2023-01-25T07:45:12;5.70;;;3.17;;
72882;SDS011;61017;37.812;-122.286;2023-01-25T07:46:43;5.30;;;2.83;;
72882;SDS011;61017;37.812;-122.286;2023-01-25T07:48:15;5.75;;;3.05;;
72882;SDS011;61017;37.812;-122.286;2023-01-25T07:49:48;5.30;;;3.55;;
72882;SDS011;61017;37.812;-122.286;2023-01-25T07:53:10;4.88;;;3.10;;
72882;SDS011;61017;37.812;-122.286;2023-01-25T07:54:45;4.80;;;3.10;;
72882;SDS011;61017;37.812;-122.286;2023-01-25T07:56:16;4.97;;;3.08;;
72882;SDS011;61017;37.812;-122.286;2023-01-25T07:57:48;5.63;;;3.30;;
72882;SDS011;61017;37.812;-122.286;2023-01-25T07:59:24;5.75;;;3.00;;
72882;SDS011;61017;37.812;-122.286;2023-01-25T08:00:56;4.35;;;3.10;;
72882;SDS011;61017;37.812;-122.286;2023-01-25T08:02:27;5.40;;;3.40;;
72882;SDS011;61017;37.812;-122.286;2023-01-25T08:03:59;4.82;;;3.38;;
72882;SDS011;61017;37.812;-122.286;2023-01-25T08:05:31;4.83;;;3.20;;
72882;SDS011;61017;37.812;-122.286;2023-01-25T08:07:02;4.53;;;3.20;;
72882;SDS011;61017;37.812;-122.286;2023-01-25T08:08:35;5.10;;;3.42;;
72882;SDS011;61017;37.812;-122.286;2023-01-25T08:10:09;4.82;;;3.70;;
72882;SDS011;61017;37.812;-122.286;2023-01-25T08:11:41;5.55;;;3.40;;
72882;SDS011;61017;37.812;-122.286;2023-01-25T08:13:13;7.05;;;3.35;;
72882;SDS011;61017;37.812;-122.286;2023-01-25T08:14:44;8.30;;;4.00;;
72882;SDS011;61017;37.812;-122.286;2023-01-25T08:16:17;7.05;;;3.60;;
72882;SDS011;61017;37.812;-122.286;2023-01-25T08:17:50;4.82;;;3.33;;
72882;SDS011;61017;37.812;-122.286;2023-01-25T08:19:21;5.78;;;3.70;;
72882;SDS011;61017;37.812;-122.286;2023-01-25T08:20:56;4.85;;;3.25;;
72882;SDS011;61017;37.812;-122.286;2023-01-25T08:22:28;6.82;;;3.45;;
72882;SDS011;61017;37.812;-122.286;2023-01-25T08:24:01;5.28;;;3.55;;
72882;SDS011;61017;37.812;-122.286;2023-01-25T08:25:36;6.07;;;3.88;;
72882;SDS011;61017;37.812;-122.286;2023-01-25T08:27:07;5.60;;;3.30;;
72882;SDS011;61017;37.812;-122.286;2023-01-25T08:28:39;6.88;;;3.80;;
72882;SDS011;61017;37.812;-122.286;2023-01-25T08:30:11;7.28;;;3.80;;
72882;SDS011;61017;37.812;-122.286;2023-01-25T08:31:43;6.15;;;3.70;;
72882;SDS011;61017;37.812;-122.286;2023-01-25T08:33:14;6.50;;;3.60;;
72882;SDS011;61017;37.812;-122.286;2023-01-25T08:34:46;6.63;;;3.67;;
72882;SDS011;61017;37.812;-122.286;2023-01-25T08:36:18;5.90;;;3.58;;
72882;SDS011;61017;37.812;-122.286;2023-01-25T08:37:50;6.78;;;3.80;;
72882;SDS011;61017;37.812;-122.286;2023-01-25T08:39:21;7.10;;;3.70;;
72882;SDS011;61017;37.812;-122.286;2023-01-25T08:40:53;6.75;;;4.00;;
72882;SDS011;61017;37.812;-122.286;2023-01-25T08:42:25;5.50;;;3.63;;
72882;SDS011;61017;37.812;-122.286;2023-01-25T08:43:56;6.25;;;3.70;;
72882;SDS011;61017;37.812;-122.286;2023-01-25T08:45:28;5.70;;;3.72;;
72882;SDS011;61017;37.812;-122.286;2023-01-25T08:46:59;5.47;;;3.60;;
72882;SDS011;61017;37.812;-122.286;2023-01-25T08:48:31;6.47;;;3.88;;
72882;SDS011;61017;37.812;-122.286;2023-01-25T08:50:03;5.70;;;4.05;;
72882;SDS011;61017;37.812;-122.286;2023-01-25T08:51:35;5.65;;;4.13;;
72882;SDS011;61017;37.812;-122.286;2023-01-25T08:53:07;7.15;;;4.10;;
72882;SDS011;61017;37.812;-122.286;2023-01-25T08:54:38;6.20;;;4.28;;
72882;SDS011;61017;37.812;-122.286;2023-01-25T08:56:11;6.15;;;3.60;;
72882;SDS011;61017;37.812;-122.286;2023-01-25T08:57:44;6.57;;;4.10;;
72882;SDS011;61017;37.812;-122.286;2023-01-25T08:59:15;8.93;;;4.95;;
72882;SDS011;61017;37.812;-122.286;2023-01-25T09:00:47;8.00;;;4.70;;
72882;SDS011;61017;37.812;-122.286;2023-01-25T09:02:19;7.15;;;4.68;;
72882;SDS011;61017;37.812;-122.286;2023-01-25T09:03:50;8.32;;;4.68;;
72882;SDS011;61017;37.812;-122.286;2023-01-25T09:05:23;8.43;;;4.82;;
72882;SDS011;61017;37.812;-122.286;2023-01-25T09:06:54;7.00;;;4.60;;